createdAt,value
2023-02-19T00:02:36.757Z,11.23
2023-02-19T00:07:39.867Z,11.25
2023-02-19T00:12:44.384Z,11.27
2023-02-19T00:17:47.548Z,11.28
2023-02-19T00:22:50.753Z,11.28
2023-02-19T00:27:55.530Z,11.31
2023-02-19T00:32:58.802Z,11.29
2023-02-19T00:38:03.208Z,11.32
2023-02-19T00:43:07.794Z,11.35
2023-02-19T00:48:10.879Z,11.37
2023-02-19T00:53:13.961Z,11.34
2023-02-19T00:58:18.487Z,11.29
2023-02-19T01:03:29.244Z,11.28
2023-02-19T01:08:33.598Z,11.26
2023-02-19T01:13:38.781Z,11.24
2023-02-19T01:18:42.281Z,11.24
2023-02-19T01:23:47.303Z,11.26
2023-02-19T01:28:52.278Z,11.26
2023-02-19T01:33:57.563Z,11.27
2023-02-19T01:39:03.789Z,11.23
2023-02-19T01:44:11.442Z,11.16
2023-02-19T01:49:19.996Z,11.13
2023-02-19T01:54:26.383Z,11.05
2023-02-19T01:59:32.810Z,11.00
2023-02-19T02:04:36.503Z,10.99
2023-02-19T02:10:11.588Z,11.00
2023-02-19T02:15:19.280Z,10.99
2023-02-19T02:20:34.856Z,11.02
2023-02-19T02:26:09.523Z,11.02
2023-02-19T02:31:19.194Z,11.01
2023-02-19T02:36:29.310Z,10.98
2023-02-19T02:41:34.343Z,10.96
2023-02-19T02:46:42.871Z,10.95
2023-02-19T02:51:50.594Z,10.90
2023-02-19T02:56:55.963Z,10.93
2023-02-19T03:02:14.269Z,10.90
2023-02-19T03:07:18.493Z,10.85
2023-02-19T03:12:40.538Z,10.86
2023-02-19T03:18:07.868Z,10.88
2023-02-19T03:23:13.241Z,10.83
2023-02-19T03:28:19.730Z,10.83
2023-02-19T03:33:28.308Z,10.81
2023-02-19T03:38:40.781Z,10.81
2023-02-19T03:43:51.987Z,10.82
2023-02-19T03:49:02.951Z,10.81
2023-02-19T03:54:14.744Z,10.82
2023-02-19T03:59:21.462Z,10.83
2023-02-19T04:04:30.605Z,10.88
2023-02-19T04:09:38.385Z,10.87
2023-02-19T04:14:46.720Z,10.92
2023-02-19T04:19:52.510Z,10.94
2023-02-19T04:24:56.744Z,10.94
2023-02-19T04:29:59.992Z,10.94
2023-02-19T04:35:04.390Z,10.92
2023-02-19T04:40:08.332Z,10.91
2023-02-19T04:45:11.622Z,10.89
2023-02-19T04:50:16.435Z,10.89
2023-02-19T04:55:19.620Z,10.86
2023-02-19T05:00:23.092Z,10.81
2023-02-19T05:05:27.768Z,10.82
2023-02-19T05:10:30.958Z,10.77
2023-02-19T05:15:34.017Z,10.78
2023-02-19T05:20:40.244Z,10.80
2023-02-19T05:25:43.253Z,10.80
2023-02-19T05:30:47.365Z,10.81
2023-02-19T05:35:54.556Z,10.82
2023-02-19T05:40:57.727Z,10.84
2023-02-19T05:46:01.043Z,10.84
2023-02-19T05:51:07.463Z,10.84
2023-02-19T05:56:28.073Z,10.85
2023-02-19T06:01:31.849Z,10.83
2023-02-19T06:06:37.252Z,10.86
2023-02-19T06:11:41.468Z,10.87
2023-02-19T06:16:44.717Z,10.88
2023-02-19T06:21:51.346Z,10.90
2023-02-19T06:26:54.540Z,10.88
2023-02-19T06:31:57.931Z,10.89
2023-02-19T06:37:02.757Z,10.86
2023-02-19T06:42:06.120Z,10.86
2023-02-19T06:47:09.310Z,10.63
2023-02-19T06:52:13.934Z,10.25
2023-02-19T06:57:17.157Z,10.04
2023-02-19T07:02:20.258Z,9.91
2023-02-19T07:07:24.788Z,9.74
2023-02-19T07:12:27.806Z,9.52
2023-02-19T07:17:31.103Z,9.47
2023-02-19T07:22:38.999Z,9.21
2023-02-19T07:27:42.270Z,9.12
2023-02-19T07:32:45.712Z,8.92
2023-02-19T07:37:50.411Z,8.73
2023-02-19T07:42:53.800Z,8.53
2023-02-19T07:47:56.915Z,8.37
2023-02-19T07:53:01.832Z,8.28
2023-02-19T07:58:06.242Z,8.13
2023-02-19T08:03:09.943Z,8.06
2023-02-19T08:08:15.933Z,7.96
2023-02-19T08:13:23.673Z,7.90
2023-02-19T08:18:34.623Z,7.89
2023-02-19T08:23:39.267Z,7.79
2023-02-19T08:28:44.285Z,7.75
2023-02-19T08:33:58.239Z,7.64
2023-02-19T08:39:02.970Z,7.47
2023-02-19T08:44:06.273Z,7.41
2023-02-19T08:49:13.249Z,7.30
2023-02-19T08:54:17.891Z,7.24
2023-02-19T08:59:22.009Z,7.22
2023-02-19T09:04:25.411Z,7.26
2023-02-19T09:09:30.541Z,7.32
2023-02-19T09:14:34.540Z,7.37
2023-02-19T09:19:45.716Z,7.47
2023-02-19T09:24:50.526Z,7.51
2023-02-19T09:29:56.080Z,7.53
2023-02-19T09:35:02.806Z,7.66
2023-02-19T09:40:09.661Z,7.69
2023-02-19T09:45:23.166Z,7.80
2023-02-19T09:50:33.902Z,7.97
2023-02-19T09:55:43.243Z,8.10
2023-02-19T10:00:51.130Z,8.49
2023-02-19T10:05:56.561Z,8.58
2023-02-19T10:11:01.667Z,8.85
2023-02-19T10:16:10.061Z,8.96
2023-02-19T10:21:19.762Z,9.10
2023-02-19T10:26:28.693Z,9.42
2023-02-19T10:31:33.460Z,9.42
2023-02-19T10:36:43.025Z,9.31
2023-02-19T10:41:47.569Z,9.25
2023-02-19T10:46:56.753Z,9.22
2023-02-19T10:52:15.766Z,9.15
2023-02-19T10:57:35.258Z,9.36
2023-02-19T11:02:39.177Z,9.49
2023-02-19T11:07:46.375Z,9.57
2023-02-19T11:12:54.411Z,9.48
2023-02-19T11:18:00.592Z,9.55
2023-02-19T11:23:16.302Z,9.74
2023-02-19T11:28:31.464Z,9.82
2023-02-19T11:33:34.584Z,9.97
2023-02-19T11:38:37.866Z,10.11
2023-02-19T11:44:08.735Z,10.26
2023-02-19T11:49:25.691Z,10.40
2023-02-19T11:54:45.672Z,10.37
2023-02-19T12:00:02.494Z,10.25
2023-02-19T12:05:19.445Z,10.25
2023-02-19T12:10:33.410Z,10.21
2023-02-19T12:16:12.861Z,10.08
2023-02-19T12:21:30.085Z,10.05
2023-02-19T12:26:46.558Z,10.02
2023-02-19T12:32:22.294Z,10.16
2023-02-19T12:37:35.744Z,10.19
2023-02-19T12:42:51.354Z,9.96
2023-02-19T12:48:02.133Z,10.08
2023-02-19T12:53:12.498Z,10.29
2023-02-19T12:58:29.697Z,10.38
2023-02-19T13:03:40.550Z,10.45
2023-02-19T13:09:05.873Z,10.36
2023-02-19T13:14:19.056Z,10.27
2023-02-19T13:19:23.617Z,10.32
2023-02-19T13:24:29.956Z,10.21
2023-02-19T13:29:46.751Z,10.03
2023-02-19T13:35:04.940Z,10.03
2023-02-19T13:40:22.530Z,9.89
2023-02-19T13:45:34.302Z,9.81
2023-02-19T13:50:39.048Z,9.64
2023-02-19T13:55:53.592Z,9.45
2023-02-19T14:00:58.184Z,9.35
2023-02-19T14:06:06.423Z,9.30
2023-02-19T14:11:09.929Z,9.25
2023-02-19T14:16:54.185Z,9.35
2023-02-19T14:21:58.813Z,9.40
2023-02-19T14:27:02.578Z,9.39
2023-02-19T14:32:07.281Z,9.34
2023-02-19T14:37:18.984Z,9.37
2023-02-19T14:42:27.184Z,9.40
2023-02-19T14:47:35.044Z,9.32
2023-02-19T14:52:45.702Z,9.37
2023-02-19T14:57:51.589Z,9.36
2023-02-19T15:02:57.798Z,9.21
2023-02-19T15:08:07.678Z,9.12
2023-02-19T15:13:17.672Z,9.03
2023-02-19T15:18:24.090Z,8.92
2023-02-19T15:23:31.701Z,8.82
2023-02-19T15:28:35.447Z,8.68
2023-02-19T15:33:38.514Z,8.57
2023-02-19T15:38:43.211Z,8.46
2023-02-19T15:43:54.367Z,8.36
2023-02-19T15:49:09.357Z,8.28
2023-02-19T15:54:27.172Z,8.22
2023-02-19T15:59:37.679Z,8.11
2023-02-19T16:04:45.752Z,7.99
2023-02-19T16:09:50.587Z,7.90
2023-02-19T16:14:58.435Z,7.83
2023-02-19T16:20:04.570Z,7.74
2023-02-19T16:25:29.897Z,7.66
2023-02-19T16:30:36.316Z,7.52
2023-02-19T16:35:45.325Z,7.42
2023-02-19T16:41:12.362Z,7.34
2023-02-19T16:46:21.205Z,7.22
2023-02-19T16:51:27.074Z,7.12
2023-02-19T16:56:36.445Z,7.03
2023-02-19T17:01:39.950Z,6.94
2023-02-19T17:06:50.653Z,6.86
2023-02-19T17:11:55.310Z,6.77
2023-02-19T17:17:01.093Z,6.68
2023-02-19T17:22:05.747Z,6.59
2023-02-19T17:27:12.014Z,6.53
2023-02-19T17:32:17.661Z,6.46
2023-02-19T17:37:21.220Z,6.39
2023-02-19T17:42:28.515Z,6.35
2023-02-19T17:47:31.849Z,6.28
2023-02-19T17:52:35.095Z,6.25
2023-02-19T17:57:39.929Z,6.21
2023-02-19T18:02:43.493Z,6.17
2023-02-19T18:07:49.482Z,6.11
2023-02-19T18:12:54.484Z,6.07
2023-02-19T18:18:00.129Z,6.01
2023-02-19T18:23:04.373Z,5.98
2023-02-19T18:28:19.131Z,5.92
2023-02-19T18:33:22.225Z,5.89
2023-02-19T18:38:26.296Z,5.84
2023-02-19T18:43:37.378Z,5.81
2023-02-19T18:48:40.952Z,5.77
2023-02-19T18:53:44.826Z,5.74
2023-02-19T18:58:50.523Z,5.69
2023-02-19T19:03:57.624Z,5.67
2023-02-19T19:09:01.000Z,5.62
2023-02-19T19:14:09.307Z,5.57
2023-02-19T19:19:12.909Z,5.52
2023-02-19T19:24:16.581Z,5.49
2023-02-19T19:29:22.450Z,5.42
2023-02-19T19:34:25.596Z,5.36
2023-02-19T19:39:36.398Z,5.29
2023-02-19T19:44:41.008Z,5.20
2023-02-19T19:49:47.991Z,5.14
2023-02-19T19:54:54.147Z,5.09
2023-02-19T19:59:58.817Z,5.07
2023-02-19T20:05:02.696Z,5.09
2023-02-19T20:10:08.758Z,5.10
2023-02-19T20:15:15.136Z,5.11
2023-02-19T20:20:18.837Z,5.22
2023-02-19T20:25:28.443Z,5.28
2023-02-19T20:30:33.151Z,5.22
2023-02-19T20:35:42.703Z,5.19
2023-02-19T20:40:45.797Z,5.17
2023-02-19T20:45:53.714Z,5.13
2023-02-19T20:50:59.576Z,5.19
2023-02-19T20:56:03.325Z,5.34
2023-02-19T21:01:08.423Z,5.32
2023-02-19T21:06:12.295Z,5.18
2023-02-19T21:11:15.558Z,5.12
2023-02-19T21:16:20.910Z,5.07
2023-02-19T21:21:26.319Z,5.05
2023-02-19T21:26:36.399Z,5.07
2023-02-19T21:31:42.955Z,5.10
2023-02-19T21:36:46.574Z,5.21
2023-02-19T21:41:51.404Z,5.33
2023-02-19T21:46:56.065Z,5.46
2023-02-19T21:51:59.566Z,5.55
2023-02-19T21:57:04.178Z,5.63
2023-02-19T22:02:10.768Z,5.69
2023-02-19T22:07:14.009Z,5.77
2023-02-19T22:12:17.286Z,5.81
2023-02-19T22:17:22.486Z,5.85
2023-02-19T22:22:26.869Z,5.92
2023-02-19T22:27:30.322Z,5.95
2023-02-19T22:32:35.097Z,6.04
2023-02-19T22:37:38.308Z,6.12
2023-02-19T22:42:41.580Z,6.23
2023-02-19T22:47:47.053Z,6.31
2023-02-19T22:52:54.691Z,6.36
2023-02-19T22:57:57.824Z,6.40
2023-02-19T23:03:02.288Z,6.44
2023-02-19T23:08:05.817Z,6.51
2023-02-19T23:13:09.120Z,6.55
2023-02-19T23:18:14.104Z,6.62
2023-02-19T23:23:17.377Z,6.67
2023-02-19T23:28:20.499Z,6.73
2023-02-19T23:33:24.988Z,6.75
2023-02-19T23:38:28.241Z,6.77
2023-02-19T23:43:31.511Z,6.82
2023-02-19T23:48:36.354Z,6.85
2023-02-19T23:53:39.570Z,6.86
2023-02-19T23:58:43.072Z,6.86
